sensor_id;sensor_type;location;lat;lon;timestamp;temperature;humidity
8152;DHT22;4117;53.622;9.958;2023-09-19T00:00:42;16.50;1.00
8152;DHT22;4117;53.622;9.958;2023-09-19T00:03:12;16.50;1.00
8152;DHT22;4117;53.622;9.958;2023-09-19T00:05:40;16.50;1.00
8152;DHT22;4117;53.622;9.958;2023-09-19T00:08:10;16.50;1.00
8152;DHT22;4117;53.622;9.958;2023-09-19T00:10:39;16.50;1.00
8152;DHT22;4117;53.622;9.958;2023-09-19T00:13:07;16.50;1.00
8152;DHT22;4117;53.622;9.958;2023-09-19T00:15:40;16.50;1.00
8152;DHT22;4117;53.622;9.958;2023-09-19T00:18:08;16.40;1.00
8152;DHT22;4117;53.622;9.958;2023-09-19T00:20:35;16.40;1.00
8152;DHT22;4117;53.622;9.958;2023-09-19T00:23:04;16.40;1.00
8152;DHT22;4117;53.622;9.958;2023-09-19T00:25:34;16.30;1.00
8152;DHT22;4117;53.622;9.958;2023-09-19T00:28:03;16.30;1.00
8152;DHT22;4117;53.622;9.958;2023-09-19T00:30:30;16.30;1.00
8152;DHT22;4117;53.622;9.958;2023-09-19T00:32:58;16.30;1.00
8152;DHT22;4117;53.622;9.958;2023-09-19T00:35:26;16.30;1.00
8152;DHT22;4117;53.622;9.958;2023-09-19T00:37:54;16.30;1.00
8152;DHT22;4117;53.622;9.958;2023-09-19T00:40:22;16.30;1.00
8152;DHT22;4117;53.622;9.958;2023-09-19T00:42:51;16.30;1.00
8152;DHT22;4117;53.622;9.958;2023-09-19T00:45:18;16.30;1.00
8152;DHT22;4117;53.622;9.958;2023-09-19T00:47:48;16.30;1.00
8152;DHT22;4117;53.622;9.958;2023-09-19T00:50:17;16.30;1.00
8152;DHT22;4117;53.622;9.958;2023-09-19T00:52:46;16.30;1.00
8152;DHT22;4117;53.622;9.958;2023-09-19T00:55:16;16.30;1.00
8152;DHT22;4117;53.622;9.958;2023-09-19T00:57:46;16.30;1.00
8152;DHT22;4117;53.622;9.958;2023-09-19T01:00:15;16.30;1.00
8152;DHT22;4117;53.622;9.958;2023-09-19T01:02:46;16.20;1.00
8152;DHT22;4117;53.622;9.958;2023-09-19T01:05:13;16.30;1.00
8152;DHT22;4117;53.622;9.958;2023-09-19T01:07:40;16.30;1.00
8152;DHT22;4117;53.622;9.958;2023-09-19T01:10:09;16.20;1.00
8152;DHT22;4117;53.622;9.958;2023-09-19T01:12:47;16.20;1.00
8152;DHT22;4117;53.622;9.958;2023-09-19T01:15:24;16.20;1.00
8152;DHT22;4117;53.622;9.958;2023-09-19T01:17:59;16.30;1.00
8152;DHT22;4117;53.622;9.958;2023-09-19T01:20:35;16.30;1.00
8152;DHT22;4117;53.622;9.958;2023-09-19T01:23:12;16.30;1.00
8152;DHT22;4117;53.622;9.958;2023-09-19T01:26:05;16.30;1.00
8152;DHT22;4117;53.622;9.958;2023-09-19T01:28:51;16.30;1.00
8152;DHT22;4117;53.622;9.958;2023-09-19T01:31:23;16.20;1.00
8152;DHT22;4117;53.622;9.958;2023-09-19T01:33:55;16.30;1.00
8152;DHT22;4117;53.622;9.958;2023-09-19T01:36:23;16.30;1.00
8152;DHT22;4117;53.622;9.958;2023-09-19T01:38:50;16.30;1.00
8152;DHT22;4117;53.622;9.958;2023-09-19T01:41:21;16.30;1.00
8152;DHT22;4117;53.622;9.958;2023-09-19T01:43:49;16.30;1.00
8152;DHT22;4117;53.622;9.958;2023-09-19T01:46:24;16.30;1.00
8152;DHT22;4117;53.622;9.958;2023-09-19T01:48:57;16.20;1.00
8152;DHT22;4117;53.622;9.958;2023-09-19T01:51:46;16.20;1.00
8152;DHT22;4117;53.622;9.958;2023-09-19T01:54:20;16.20;1.00
8152;DHT22;4117;53.622;9.958;2023-09-19T01:56:57;16.20;1.00
8152;DHT22;4117;53.622;9.958;2023-09-19T01:59:34;16.20;1.00
8152;DHT22;4117;53.622;9.958;2023-09-19T02:02:04;16.10;1.00
8152;DHT22;4117;53.622;9.958;2023-09-19T02:04:33;16.10;1.00
8152;DHT22;4117;53.622;9.958;2023-09-19T02:07:00;16.10;1.00
8152;DHT22;4117;53.622;9.958;2023-09-19T02:09:27;16.10;1.00
8152;DHT22;4117;53.622;9.958;2023-09-19T02:11:54;16.00;1.00
8152;DHT22;4117;53.622;9.958;2023-09-19T02:14:22;16.00;1.00
8152;DHT22;4117;53.622;9.958;2023-09-19T02:16:49;16.00;1.00
8152;DHT22;4117;53.622;9.958;2023-09-19T02:19:18;16.00;1.00
8152;DHT22;4117;53.622;9.958;2023-09-19T02:21:46;16.00;1.00
8152;DHT22;4117;53.622;9.958;2023-09-19T02:24:14;15.90;1.00
8152;DHT22;4117;53.622;9.958;2023-09-19T02:26:41;15.90;1.00
8152;DHT22;4117;53.622;9.958;2023-09-19T02:29:09;15.90;1.00
8152;DHT22;4117;53.622;9.958;2023-09-19T02:31:38;15.90;1.00
8152;DHT22;4117;53.622;9.958;2023-09-19T02:36:52;15.90;1.00
8152;DHT22;4117;53.622;9.958;2023-09-19T02:39:20;15.80;1.00
8152;DHT22;4117;53.622;9.958;2023-09-19T02:41:49;15.80;1.00
8152;DHT22;4117;53.622;9.958;2023-09-19T02:44:16;15.80;1.00
8152;DHT22;4117;53.622;9.958;2023-09-19T02:46:46;15.80;1.00
8152;DHT22;4117;53.622;9.958;2023-09-19T02:49:13;15.80;1.00
8152;DHT22;4117;53.622;9.958;2023-09-19T02:51:41;15.80;1.00
8152;DHT22;4117;53.622;9.958;2023-09-19T02:54:10;15.90;1.00
8152;DHT22;4117;53.622;9.958;2023-09-19T02:56:37;15.90;1.00
8152;DHT22;4117;53.622;9.958;2023-09-19T02:59:05;15.80;1.00
8152;DHT22;4117;53.622;9.958;2023-09-19T03:01:32;15.80;1.00
8152;DHT22;4117;53.622;9.958;2023-09-19T03:03:59;15.80;1.00
8152;DHT22;4117;53.622;9.958;2023-09-19T03:06:28;15.90;1.00
8152;DHT22;4117;53.622;9.958;2023-09-19T03:08:56;15.90;1.00
8152;DHT22;4117;53.622;9.958;2023-09-19T03:11:39;15.80;1.00
8152;DHT22;4117;53.622;9.958;2023-09-19T03:14:07;15.80;1.00
8152;DHT22;4117;53.622;9.958;2023-09-19T03:16:35;15.80;1.00
8152;DHT22;4117;53.622;9.958;2023-09-19T03:19:03;15.80;1.00
8152;DHT22;4117;53.622;9.958;2023-09-19T03:21:30;15.80;1.00
8152;DHT22;4117;53.622;9.958;2023-09-19T03:23:57;15.70;1.00
8152;DHT22;4117;53.622;9.958;2023-09-19T03:26:25;15.80;1.00
8152;DHT22;4117;53.622;9.958;2023-09-19T03:28:53;15.80;1.00
8152;DHT22;4117;53.622;9.958;2023-09-19T03:31:21;15.80;1.00
8152;DHT22;4117;53.622;9.958;2023-09-19T03:33:48;15.70;1.00
8152;DHT22;4117;53.622;9.958;2023-09-19T03:36:15;15.70;1.00
8152;DHT22;4117;53.622;9.958;2023-09-19T03:38:42;15.70;1.00
8152;DHT22;4117;53.622;9.958;2023-09-19T03:41:09;15.70;1.00
8152;DHT22;4117;53.622;9.958;2023-09-19T03:43:39;15.70;1.00
8152;DHT22;4117;53.622;9.958;2023-09-19T03:46:08;15.70;1.00
8152;DHT22;4117;53.622;9.958;2023-09-19T03:48:35;15.70;1.00
8152;DHT22;4117;53.622;9.958;2023-09-19T03:51:05;15.70;1.00
8152;DHT22;4117;53.622;9.958;2023-09-19T03:53:32;15.70;1.00
8152;DHT22;4117;53.622;9.958;2023-09-19T03:55:59;15.70;1.00
8152;DHT22;4117;53.622;9.958;2023-09-19T03:58:27;15.60;1.00
8152;DHT22;4117;53.622;9.958;2023-09-19T04:00:55;15.60;1.00
8152;DHT22;4117;53.622;9.958;2023-09-19T04:03:24;15.60;1.00
8152;DHT22;4117;53.622;9.958;2023-09-19T04:06:00;15.50;1.00
8152;DHT22;4117;53.622;9.958;2023-09-19T04:08:28;15.50;1.00
8152;DHT22;4117;53.622;9.958;2023-09-19T04:10:55;15.50;1.00
8152;DHT22;4117;53.622;9.958;2023-09-19T04:13:22;15.40;1.00
8152;DHT22;4117;53.622;9.958;2023-09-19T04:15:49;15.40;1.00
8152;DHT22;4117;53.622;9.958;2023-09-19T04:18:16;15.30;1.00
8152;DHT22;4117;53.622;9.958;2023-09-19T04:20:49;15.30;1.00
8152;DHT22;4117;53.622;9.958;2023-09-19T04:23:16;15.20;1.00
8152;DHT22;4117;53.622;9.958;2023-09-19T04:25:44;15.20;1.00
8152;DHT22;4117;53.622;9.958;2023-09-19T04:28:11;15.10;1.00
8152;DHT22;4117;53.622;9.958;2023-09-19T04:30:40;15.20;1.00
8152;DHT22;4117;53.622;9.958;2023-09-19T04:33:07;15.20;1.00
8152;DHT22;4117;53.622;9.958;2023-09-19T04:35:34;15.10;1.00
8152;DHT22;4117;53.622;9.958;2023-09-19T04:38:03;15.10;1.00
8152;DHT22;4117;53.622;9.958;2023-09-19T04:40:32;15.00;1.00
8152;DHT22;4117;53.622;9.958;2023-09-19T04:42:59;15.00;1.00
8152;DHT22;4117;53.622;9.958;2023-09-19T04:45:27;15.00;1.00
8152;DHT22;4117;53.622;9.958;2023-09-19T04:47:54;14.90;1.00
8152;DHT22;4117;53.622;9.958;2023-09-19T04:50:22;14.90;1.00
8152;DHT22;4117;53.622;9.958;2023-09-19T04:52:52;14.80;1.00
8152;DHT22;4117;53.622;9.958;2023-09-19T04:55:20;14.90;1.00
8152;DHT22;4117;53.622;9.958;2023-09-19T04:57:48;14.90;1.00
8152;DHT22;4117;53.622;9.958;2023-09-19T05:00:17;14.90;1.00
8152;DHT22;4117;53.622;9.958;2023-09-19T05:02:49;14.80;1.00
8152;DHT22;4117;53.622;9.958;2023-09-19T05:05:17;14.80;1.00
8152;DHT22;4117;53.622;9.958;2023-09-19T05:07:45;14.80;1.00
8152;DHT22;4117;53.622;9.958;2023-09-19T05:10:12;14.80;1.00
8152;DHT22;4117;53.622;9.958;2023-09-19T05:12:41;14.70;1.00
8152;DHT22;4117;53.622;9.958;2023-09-19T05:15:10;14.70;1.00
8152;DHT22;4117;53.622;9.958;2023-09-19T05:17:38;14.70;1.00
8152;DHT22;4117;53.622;9.958;2023-09-19T05:20:06;14.70;1.00
8152;DHT22;4117;53.622;9.958;2023-09-19T05:22:46;14.70;1.00
8152;DHT22;4117;53.622;9.958;2023-09-19T05:25:13;14.60;1.00
8152;DHT22;4117;53.622;9.958;2023-09-19T05:27:43;14.70;1.00
8152;DHT22;4117;53.622;9.958;2023-09-19T05:30:11;14.60;1.00
8152;DHT22;4117;53.622;9.958;2023-09-19T05:32:39;14.50;1.00
8152;DHT22;4117;53.622;9.958;2023-09-19T05:35:06;14.50;1.00
8152;DHT22;4117;53.622;9.958;2023-09-19T05:37:35;14.50;1.00
8152;DHT22;4117;53.622;9.958;2023-09-19T05:40:04;14.40;1.00
8152;DHT22;4117;53.622;9.958;2023-09-19T05:42:36;14.40;1.00
8152;DHT22;4117;53.622;9.958;2023-09-19T05:45:06;14.40;1.00
8152;DHT22;4117;53.622;9.958;2023-09-19T05:47:33;14.40;1.00
8152;DHT22;4117;53.622;9.958;2023-09-19T05:50:00;14.50;1.00
8152;DHT22;4117;53.622;9.958;2023-09-19T05:52:27;14.50;1.00
8152;DHT22;4117;53.622;9.958;2023-09-19T05:54:54;14.50;1.00
8152;DHT22;4117;53.622;9.958;2023-09-19T05:57:22;14.40;1.00
8152;DHT22;4117;53.622;9.958;2023-09-19T05:59:50;14.40;1.00
8152;DHT22;4117;53.622;9.958;2023-09-19T06:02:18;14.50;1.00
8152;DHT22;4117;53.622;9.958;2023-09-19T06:04:45;14.40;1.00
8152;DHT22;4117;53.622;9.958;2023-09-19T06:07:12;14.50;1.00
8152;DHT22;4117;53.622;9.958;2023-09-19T06:09:40;14.50;1.00
8152;DHT22;4117;53.622;9.958;2023-09-19T06:12:08;14.50;1.00
8152;DHT22;4117;53.622;9.958;2023-09-19T06:14:35;14.50;1.00
8152;DHT22;4117;53.622;9.958;2023-09-19T06:17:02;14.60;1.00
8152;DHT22;4117;53.622;9.958;2023-09-19T06:19:30;14.60;1.00
8152;DHT22;4117;53.622;9.958;2023-09-19T06:21:58;14.60;1.00
8152;DHT22;4117;53.622;9.958;2023-09-19T06:24:25;14.70;1.00
8152;DHT22;4117;53.622;9.958;2023-09-19T06:26:52;14.70;1.00
8152;DHT22;4117;53.622;9.958;2023-09-19T06:29:20;14.70;1.00
8152;DHT22;4117;53.622;9.958;2023-09-19T06:31:48;14.70;1.00
8152;DHT22;4117;53.622;9.958;2023-09-19T06:34:16;14.70;1.00
8152;DHT22;4117;53.622;9.958;2023-09-19T06:36:45;14.70;1.00
8152;DHT22;4117;53.622;9.958;2023-09-19T06:39:12;14.70;1.00
8152;DHT22;4117;53.622;9.958;2023-09-19T06:41:39;14.70;1.00
8152;DHT22;4117;53.622;9.958;2023-09-19T06:44:07;14.70;1.00
8152;DHT22;4117;53.622;9.958;2023-09-19T06:46:35;14.70;1.00
8152;DHT22;4117;53.622;9.958;2023-09-19T06:49:04;14.80;1.00
8152;DHT22;4117;53.622;9.958;2023-09-19T06:51:32;14.80;1.00
8152;DHT22;4117;53.622;9.958;2023-09-19T06:54:01;14.80;1.00
8152;DHT22;4117;53.622;9.958;2023-09-19T06:56:30;14.80;1.00
8152;DHT22;4117;53.622;9.958;2023-09-19T06:58:58;14.80;1.00
8152;DHT22;4117;53.622;9.958;2023-09-19T07:01:26;14.80;1.00
8152;DHT22;4117;53.622;9.958;2023-09-19T07:03:53;14.80;1.00
8152;DHT22;4117;53.622;9.958;2023-09-19T07:06:20;14.80;1.00
8152;DHT22;4117;53.622;9.958;2023-09-19T07:08:47;14.80;1.00
8152;DHT22;4117;53.622;9.958;2023-09-19T07:11:17;14.80;1.00
8152;DHT22;4117;53.622;9.958;2023-09-19T07:13:44;14.90;1.00
8152;DHT22;4117;53.622;9.958;2023-09-19T07:16:11;14.90;1.00
8152;DHT22;4117;53.622;9.958;2023-09-19T07:18:52;14.90;1.00
8152;DHT22;4117;53.622;9.958;2023-09-19T07:21:20;15.00;1.00
8152;DHT22;4117;53.622;9.958;2023-09-19T07:23:47;15.00;1.00
8152;DHT22;4117;53.622;9.958;2023-09-19T07:26:16;15.00;1.00
8152;DHT22;4117;53.622;9.958;2023-09-19T07:28:43;15.00;1.00
8152;DHT22;4117;53.622;9.958;2023-09-19T07:31:10;15.00;1.00
8152;DHT22;4117;53.622;9.958;2023-09-19T07:33:39;15.10;1.00
8152;DHT22;4117;53.622;9.958;2023-09-19T07:36:10;15.00;1.00
8152;DHT22;4117;53.622;9.958;2023-09-19T07:38:39;15.00;1.00
8152;DHT22;4117;53.622;9.958;2023-09-19T07:41:06;15.00;1.00
8152;DHT22;4117;53.622;9.958;2023-09-19T07:43:36;15.00;1.00
8152;DHT22;4117;53.622;9.958;2023-09-19T07:46:05;15.00;1.00
8152;DHT22;4117;53.622;9.958;2023-09-19T07:48:34;15.00;1.00
8152;DHT22;4117;53.622;9.958;2023-09-19T07:51:04;15.00;1.00
8152;DHT22;4117;53.622;9.958;2023-09-19T07:53:31;15.00;1.00
8152;DHT22;4117;53.622;9.958;2023-09-19T07:56:04;14.90;1.00
8152;DHT22;4117;53.622;9.958;2023-09-19T07:58:32;14.90;1.00
8152;DHT22;4117;53.622;9.958;2023-09-19T08:01:04;14.90;1.00
8152;DHT22;4117;53.622;9.958;2023-09-19T08:03:32;14.90;1.00
8152;DHT22;4117;53.622;9.958;2023-09-19T08:05:59;14.80;1.00
8152;DHT22;4117;53.622;9.958;2023-09-19T08:08:26;14.80;1.00
8152;DHT22;4117;53.622;9.958;2023-09-19T08:10:54;14.80;1.00
8152;DHT22;4117;53.622;9.958;2023-09-19T08:13:22;14.80;1.00
8152;DHT22;4117;53.622;9.958;2023-09-19T08:15:49;14.80;1.00
8152;DHT22;4117;53.622;9.958;2023-09-19T08:18:20;14.90;1.00
8152;DHT22;4117;53.622;9.958;2023-09-19T08:20:54;14.90;1.00
8152;DHT22;4117;53.622;9.958;2023-09-19T08:23:21;14.90;1.00
8152;DHT22;4117;53.622;9.958;2023-09-19T08:25:48;15.00;1.00
8152;DHT22;4117;53.622;9.958;2023-09-19T08:28:15;15.00;1.00
8152;DHT22;4117;53.622;9.958;2023-09-19T08:30:45;15.00;1.00
8152;DHT22;4117;53.622;9.958;2023-09-19T08:33:12;15.00;1.00
8152;DHT22;4117;53.622;9.958;2023-09-19T08:35:42;15.00;1.00
8152;DHT22;4117;53.622;9.958;2023-09-19T08:38:11;15.00;1.00
8152;DHT22;4117;53.622;9.958;2023-09-19T08:40:39;15.00;1.00
8152;DHT22;4117;53.622;9.958;2023-09-19T08:43:08;15.00;1.00
8152;DHT22;4117;53.622;9.958;2023-09-19T08:45:35;15.00;1.00
8152;DHT22;4117;53.622;9.958;2023-09-19T08:48:22;15.10;1.00
8152;DHT22;4117;53.622;9.958;2023-09-19T08:50:54;15.10;1.00
8152;DHT22;4117;53.622;9.958;2023-09-19T08:53:27;15.10;1.00
8152;DHT22;4117;53.622;9.958;2023-09-19T08:56:00;15.10;1.00
8152;DHT22;4117;53.622;9.958;2023-09-19T08:58:36;15.10;1.00
8152;DHT22;4117;53.622;9.958;2023-09-19T09:01:07;15.20;1.00
8152;DHT22;4117;53.622;9.958;2023-09-19T09:03:37;15.20;1.00
8152;DHT22;4117;53.622;9.958;2023-09-19T09:06:07;15.20;1.00
8152;DHT22;4117;53.622;9.958;2023-09-19T09:08:36;15.20;1.00
8152;DHT22;4117;53.622;9.958;2023-09-19T09:11:05;15.20;1.00
8152;DHT22;4117;53.622;9.958;2023-09-19T09:13:34;15.30;1.00
8152;DHT22;4117;53.622;9.958;2023-09-19T09:16:02;15.30;1.00
8152;DHT22;4117;53.622;9.958;2023-09-19T09:18:29;15.30;1.00
8152;DHT22;4117;53.622;9.958;2023-09-19T09:20:56;15.30;1.00
8152;DHT22;4117;53.622;9.958;2023-09-19T09:23:26;15.40;1.00
8152;DHT22;4117;53.622;9.958;2023-09-19T09:25:56;15.40;1.00
8152;DHT22;4117;53.622;9.958;2023-09-19T09:28:29;15.40;1.00
8152;DHT22;4117;53.622;9.958;2023-09-19T09:30:56;15.40;1.00
8152;DHT22;4117;53.622;9.958;2023-09-19T09:33:24;15.40;1.00
8152;DHT22;4117;53.622;9.958;2023-09-19T09:35:54;15.50;1.00
8152;DHT22;4117;53.622;9.958;2023-09-19T09:38:23;15.50;1.00
8152;DHT22;4117;53.622;9.958;2023-09-19T09:40:55;15.60;1.00
8152;DHT22;4117;53.622;9.958;2023-09-19T09:43:31;15.60;1.00
8152;DHT22;4117;53.622;9.958;2023-09-19T09:46:11;15.70;1.00
8152;DHT22;4117;53.622;9.958;2023-09-19T09:48:57;15.70;1.00
8152;DHT22;4117;53.622;9.958;2023-09-19T09:51:59;15.80;1.00
8152;DHT22;4117;53.622;9.958;2023-09-19T09:54:28;15.80;1.00
8152;DHT22;4117;53.622;9.958;2023-09-19T09:57:04;15.80;1.00
8152;DHT22;4117;53.622;9.958;2023-09-19T09:59:47;15.90;1.00
8152;DHT22;4117;53.622;9.958;2023-09-19T10:02:16;15.90;1.00
8152;DHT22;4117;53.622;9.958;2023-09-19T10:04:51;16.00;1.00
8152;DHT22;4117;53.622;9.958;2023-09-19T10:07:28;16.00;1.00
8152;DHT22;4117;53.622;9.958;2023-09-19T10:10:01;16.00;1.00
8152;DHT22;4117;53.622;9.958;2023-09-19T10:12:40;16.10;1.00
8152;DHT22;4117;53.622;9.958;2023-09-19T10:15:14;16.10;1.00
8152;DHT22;4117;53.622;9.958;2023-09-19T10:17:44;16.10;1.00
8152;DHT22;4117;53.622;9.958;2023-09-19T10:20:16;16.10;1.00
8152;DHT22;4117;53.622;9.958;2023-09-19T10:23:05;16.10;1.00
8152;DHT22;4117;53.622;9.958;2023-09-19T10:25:37;16.20;1.00
8152;DHT22;4117;53.622;9.958;2023-09-19T10:28:06;16.20;1.00
8152;DHT22;4117;53.622;9.958;2023-09-19T10:30:38;16.30;1.00
8152;DHT22;4117;53.622;9.958;2023-09-19T10:33:08;16.40;1.00
8152;DHT22;4117;53.622;9.958;2023-09-19T10:35:38;16.40;1.00
8152;DHT22;4117;53.622;9.958;2023-09-19T10:38:07;16.40;1.00
8152;DHT22;4117;53.622;9.958;2023-09-19T10:40:35;16.40;1.00
8152;DHT22;4117;53.622;9.958;2023-09-19T10:43:12;16.50;1.00
8152;DHT22;4117;53.622;9.958;2023-09-19T10:45:41;16.50;1.00
8152;DHT22;4117;53.622;9.958;2023-09-19T10:48:10;16.60;1.00
8152;DHT22;4117;53.622;9.958;2023-09-19T10:50:44;16.50;1.00
8152;DHT22;4117;53.622;9.958;2023-09-19T10:53:13;16.50;1.00
8152;DHT22;4117;53.622;9.958;2023-09-19T10:55:41;16.60;1.00
8152;DHT22;4117;53.622;9.958;2023-09-19T10:58:27;16.50;1.00
8152;DHT22;4117;53.622;9.958;2023-09-19T11:00:55;16.60;1.00
8152;DHT22;4117;53.622;9.958;2023-09-19T11:03:23;16.60;1.00
8152;DHT22;4117;53.622;9.958;2023-09-19T11:06:10;16.60;1.00
8152;DHT22;4117;53.622;9.958;2023-09-19T11:08:59;16.60;1.00
8152;DHT22;4117;53.622;9.958;2023-09-19T11:11:49;16.70;1.00
8152;DHT22;4117;53.622;9.958;2023-09-19T11:14:41;16.70;1.00
8152;DHT22;4117;53.622;9.958;2023-09-19T11:17:40;16.60;1.00
8152;DHT22;4117;53.622;9.958;2023-09-19T11:20:23;16.60;1.00
8152;DHT22;4117;53.622;9.958;2023-09-19T11:23:23;16.60;1.00
8152;DHT22;4117;53.622;9.958;2023-09-19T11:25:54;16.60;1.00
8152;DHT22;4117;53.622;9.958;2023-09-19T11:28:34;16.60;1.00
8152;DHT22;4117;53.622;9.958;2023-09-19T11:34:46;16.70;1.00
8152;DHT22;4117;53.622;9.958;2023-09-19T11:40:37;16.70;1.00
8152;DHT22;4117;53.622;9.958;2023-09-19T11:43:30;16.80;1.00
8152;DHT22;4117;53.622;9.958;2023-09-19T11:46:08;16.80;1.00
8152;DHT22;4117;53.622;9.958;2023-09-19T11:48:38;16.80;1.00
8152;DHT22;4117;53.622;9.958;2023-09-19T11:51:19;16.80;1.00
8152;DHT22;4117;53.622;9.958;2023-09-19T11:53:48;16.70;1.00
8152;DHT22;4117;53.622;9.958;2023-09-19T11:56:17;16.80;1.00
8152;DHT22;4117;53.622;9.958;2023-09-19T11:58:46;16.80;1.00
8152;DHT22;4117;53.622;9.958;2023-09-19T12:01:23;16.90;1.00
8152;DHT22;4117;53.622;9.958;2023-09-19T12:03:54;17.00;1.00
8152;DHT22;4117;53.622;9.958;2023-09-19T12:06:25;17.10;1.00
8152;DHT22;4117;53.622;9.958;2023-09-19T12:08:53;17.20;1.00
8152;DHT22;4117;53.622;9.958;2023-09-19T12:11:22;17.10;1.00
8152;DHT22;4117;53.622;9.958;2023-09-19T12:13:50;17.10;1.00
8152;DHT22;4117;53.622;9.958;2023-09-19T12:16:19;17.10;1.00
8152;DHT22;4117;53.622;9.958;2023-09-19T12:18:49;17.10;1.00
8152;DHT22;4117;53.622;9.958;2023-09-19T12:21:28;17.10;1.00
8152;DHT22;4117;53.622;9.958;2023-09-19T12:24:14;17.20;1.00
8152;DHT22;4117;53.622;9.958;2023-09-19T12:26:45;17.30;1.00
8152;DHT22;4117;53.622;9.958;2023-09-19T12:29:15;17.30;1.00
8152;DHT22;4117;53.622;9.958;2023-09-19T12:31:54;17.40;1.00
8152;DHT22;4117;53.622;9.958;2023-09-19T12:34:24;17.50;1.00
8152;DHT22;4117;53.622;9.958;2023-09-19T12:37:08;17.60;1.00
8152;DHT22;4117;53.622;9.958;2023-09-19T12:39:39;17.70;1.00
8152;DHT22;4117;53.622;9.958;2023-09-19T12:42:09;17.60;1.00
8152;DHT22;4117;53.622;9.958;2023-09-19T12:44:41;17.60;1.00
8152;DHT22;4117;53.622;9.958;2023-09-19T12:47:11;17.50;1.00
8152;DHT22;4117;53.622;9.958;2023-09-19T12:50:10;17.50;1.00
8152;DHT22;4117;53.622;9.958;2023-09-19T12:52:46;17.50;1.00
8152;DHT22;4117;53.622;9.958;2023-09-19T12:55:26;17.40;1.00
8152;DHT22;4117;53.622;9.958;2023-09-19T12:58:11;17.40;1.00
8152;DHT22;4117;53.622;9.958;2023-09-19T13:00:39;17.50;1.00
8152;DHT22;4117;53.622;9.958;2023-09-19T13:03:14;17.50;1.00
8152;DHT22;4117;53.622;9.958;2023-09-19T13:05:50;17.60;1.00
8152;DHT22;4117;53.622;9.958;2023-09-19T13:08:23;17.60;1.00
8152;DHT22;4117;53.622;9.958;2023-09-19T13:11:06;17.60;1.00
8152;DHT22;4117;53.622;9.958;2023-09-19T13:13:36;17.70;1.00
8152;DHT22;4117;53.622;9.958;2023-09-19T13:16:04;17.70;1.00
8152;DHT22;4117;53.622;9.958;2023-09-19T13:18:45;17.70;1.00
8152;DHT22;4117;53.622;9.958;2023-09-19T13:21:13;17.70;1.00
8152;DHT22;4117;53.622;9.958;2023-09-19T13:23:55;17.70;1.00
8152;DHT22;4117;53.622;9.958;2023-09-19T13:26:25;17.70;1.00
8152;DHT22;4117;53.622;9.958;2023-09-19T13:28:53;17.80;1.00
8152;DHT22;4117;53.622;9.958;2023-09-19T13:31:20;17.80;1.00
8152;DHT22;4117;53.622;9.958;2023-09-19T13:33:49;17.90;1.00
8152;DHT22;4117;53.622;9.958;2023-09-19T13:36:17;18.00;1.00
8152;DHT22;4117;53.622;9.958;2023-09-19T13:38:44;18.00;1.00
8152;DHT22;4117;53.622;9.958;2023-09-19T13:41:15;18.00;1.00
8152;DHT22;4117;53.622;9.958;2023-09-19T13:43:43;18.00;1.00
8152;DHT22;4117;53.622;9.958;2023-09-19T13:46:13;18.00;1.00
8152;DHT22;4117;53.622;9.958;2023-09-19T13:48:43;18.00;1.00
8152;DHT22;4117;53.622;9.958;2023-09-19T13:51:10;18.00;1.00
8152;DHT22;4117;53.622;9.958;2023-09-19T13:53:37;18.00;1.00
8152;DHT22;4117;53.622;9.958;2023-09-19T13:56:04;18.10;1.00
8152;DHT22;4117;53.622;9.958;2023-09-19T13:58:33;18.10;1.00
8152;DHT22;4117;53.622;9.958;2023-09-19T14:01:01;18.10;1.00
8152;DHT22;4117;53.622;9.958;2023-09-19T14:03:28;18.10;1.00
8152;DHT22;4117;53.622;9.958;2023-09-19T14:05:55;18.10;1.00
8152;DHT22;4117;53.622;9.958;2023-09-19T14:08:23;18.20;1.00
8152;DHT22;4117;53.622;9.958;2023-09-19T14:10:50;18.20;1.00
8152;DHT22;4117;53.622;9.958;2023-09-19T14:13:17;18.30;1.00
8152;DHT22;4117;53.622;9.958;2023-09-19T14:15:47;18.30;1.00
8152;DHT22;4117;53.622;9.958;2023-09-19T14:18:14;18.30;1.00
8152;DHT22;4117;53.622;9.958;2023-09-19T14:20:41;18.30;1.00
8152;DHT22;4117;53.622;9.958;2023-09-19T14:23:09;18.30;1.00
8152;DHT22;4117;53.622;9.958;2023-09-19T14:25:36;18.30;1.00
8152;DHT22;4117;53.622;9.958;2023-09-19T14:28:04;18.30;1.00
8152;DHT22;4117;53.622;9.958;2023-09-19T14:30:33;18.30;1.00
8152;DHT22;4117;53.622;9.958;2023-09-19T14:33:04;18.30;1.00
8152;DHT22;4117;53.622;9.958;2023-09-19T14:35:31;18.30;1.00
8152;DHT22;4117;53.622;9.958;2023-09-19T14:37:58;18.40;1.00
8152;DHT22;4117;53.622;9.958;2023-09-19T14:40:25;18.40;1.00
8152;DHT22;4117;53.622;9.958;2023-09-19T14:42:52;18.30;1.00
8152;DHT22;4117;53.622;9.958;2023-09-19T14:45:19;18.30;1.00
8152;DHT22;4117;53.622;9.958;2023-09-19T14:47:46;18.20;1.00
8152;DHT22;4117;53.622;9.958;2023-09-19T14:50:15;18.20;1.00
8152;DHT22;4117;53.622;9.958;2023-09-19T14:52:42;18.20;1.00
8152;DHT22;4117;53.622;9.958;2023-09-19T14:55:09;18.10;1.00
8152;DHT22;4117;53.622;9.958;2023-09-19T14:57:40;18.10;1.00
8152;DHT22;4117;53.622;9.958;2023-09-19T15:00:11;18.10;1.00
8152;DHT22;4117;53.622;9.958;2023-09-19T15:02:39;18.10;1.00
8152;DHT22;4117;53.622;9.958;2023-09-19T15:05:07;18.10;1.00
8152;DHT22;4117;53.622;9.958;2023-09-19T15:07:36;18.10;1.00
8152;DHT22;4117;53.622;9.958;2023-09-19T15:10:05;18.10;1.00
8152;DHT22;4117;53.622;9.958;2023-09-19T15:12:36;18.10;1.00
8152;DHT22;4117;53.622;9.958;2023-09-19T15:15:04;18.10;1.00
8152;DHT22;4117;53.622;9.958;2023-09-19T15:17:32;18.00;1.00
8152;DHT22;4117;53.622;9.958;2023-09-19T15:19:59;18.10;1.00
8152;DHT22;4117;53.622;9.958;2023-09-19T15:22:27;18.00;1.00
8152;DHT22;4117;53.622;9.958;2023-09-19T15:24:56;18.00;1.00
8152;DHT22;4117;53.622;9.958;2023-09-19T15:27:23;18.00;1.00
8152;DHT22;4117;53.622;9.958;2023-09-19T15:29:50;18.00;1.00
8152;DHT22;4117;53.622;9.958;2023-09-19T15:32:17;18.00;1.00
8152;DHT22;4117;53.622;9.958;2023-09-19T15:34:44;18.00;1.00
8152;DHT22;4117;53.622;9.958;2023-09-19T15:37:11;18.00;1.00
8152;DHT22;4117;53.622;9.958;2023-09-19T15:39:45;18.00;1.00
8152;DHT22;4117;53.622;9.958;2023-09-19T15:42:14;18.10;1.00
8152;DHT22;4117;53.622;9.958;2023-09-19T15:44:42;18.00;1.00
8152;DHT22;4117;53.622;9.958;2023-09-19T15:47:09;18.00;1.00
8152;DHT22;4117;53.622;9.958;2023-09-19T15:49:36;18.00;1.00
8152;DHT22;4117;53.622;9.958;2023-09-19T15:52:04;18.00;1.00
8152;DHT22;4117;53.622;9.958;2023-09-19T15:54:31;18.00;1.00
8152;DHT22;4117;53.622;9.958;2023-09-19T15:57:00;18.00;1.00
8152;DHT22;4117;53.622;9.958;2023-09-19T15:59:29;18.00;1.00
8152;DHT22;4117;53.622;9.958;2023-09-19T16:01:56;18.00;1.00
8152;DHT22;4117;53.622;9.958;2023-09-19T16:04:24;18.00;1.00
8152;DHT22;4117;53.622;9.958;2023-09-19T16:06:51;17.90;1.00
8152;DHT22;4117;53.622;9.958;2023-09-19T16:09:18;17.90;1.00
8152;DHT22;4117;53.622;9.958;2023-09-19T16:11:45;17.90;1.00
8152;DHT22;4117;53.622;9.958;2023-09-19T16:14:12;17.90;1.00
8152;DHT22;4117;53.622;9.958;2023-09-19T16:16:40;17.80;1.00
8152;DHT22;4117;53.622;9.958;2023-09-19T16:19:10;17.80;1.00
8152;DHT22;4117;53.622;9.958;2023-09-19T16:21:37;17.80;1.00
8152;DHT22;4117;53.622;9.958;2023-09-19T16:24:07;17.80;1.00
8152;DHT22;4117;53.622;9.958;2023-09-19T16:26:35;17.80;1.00
8152;DHT22;4117;53.622;9.958;2023-09-19T16:29:03;17.80;1.00
8152;DHT22;4117;53.622;9.958;2023-09-19T16:31:31;17.80;1.00
8152;DHT22;4117;53.622;9.958;2023-09-19T16:33:59;17.80;1.00
8152;DHT22;4117;53.622;9.958;2023-09-19T16:36:27;17.80;1.00
8152;DHT22;4117;53.622;9.958;2023-09-19T16:38:54;17.80;1.00
8152;DHT22;4117;53.622;9.958;2023-09-19T16:41:21;17.70;1.00
8152;DHT22;4117;53.622;9.958;2023-09-19T16:43:49;17.80;1.00
8152;DHT22;4117;53.622;9.958;2023-09-19T16:46:16;17.80;1.00